^^
Your Local Weather - Clay, NY Station Historical Data
Daily Summary for February 13, 2018 Units:  English    Metric   Both
« Previous Day
Next Day »
Daily Weekly Monthly Yearly Custom
  High: Low: Average:
Temperature: 27.3 °F 12.7 °F 22.3 °F
Dew Point: 14.3 °F 5.9 °F 10.3 °F
Humidity: 75% 48% 60%
Wind Speed: 4.0mph 0.0mph 1.4mph
Wind Gust: 8.0mph - -
Wind- - South
Pressure: 30.84 in 30.36 in -
Precipitation: 0.00 in    
Historical Graphs
 
 
Tabular Data for February 13, 2018
Time Temperature Dew Point Pressure Wind Wind Speed Wind Gust Humidity Rainfall Rate (Hourly) solar
00:00 21.9 °F 12.6 °F 30.75 in NW 2.0 mph 2.0 mph 67% 0.00 in 0 W/m2
00:06 21.9 °F 12.3 °F 30.75 in NNW 2.0 mph 3.0 mph 66% 0.00 in 0 W/m2
00:12 21.9 °F 12.3 °F 30.75 in NNW 2.0 mph 2.0 mph 66% 0.00 in 0 W/m2
00:18 21.9 °F 12.3 °F 30.76 in NW 2.0 mph 2.0 mph 66% 0.00 in 0 W/m2
00:24 21.9 °F 12.3 °F 30.76 in NW 2.0 mph 4.0 mph 66% 0.00 in 0 W/m2
00:30 21.8 °F 12.2 °F 30.76 in NW 2.0 mph 4.0 mph 66% 0.00 in 0 W/m2
00:36 21.8 °F 12.2 °F 30.76 in NNW 2.0 mph 4.0 mph 66% 0.00 in 0 W/m2
00:42 21.7 °F 12.1 °F 30.76 in NW 2.0 mph 2.0 mph 66% 0.00 in 0 W/m2
00:48 21.7 °F 11.7 °F 30.76 in NNW 3.0 mph 5.0 mph 65% 0.00 in 0 W/m2
00:54 21.7 °F 11.7 °F 30.76 in NW 3.0 mph 5.0 mph 65% 0.00 in 0 W/m2
01:00 21.6 °F 11.6 °F 30.76 in North 2.0 mph 2.0 mph 65% 0.00 in 0 W/m2
01:06 21.6 °F 12.0 °F 30.76 in NNW 2.0 mph 3.0 mph 66% 0.00 in 0 W/m2
01:12 21.5 °F 11.9 °F 30.76 in NNW 2.0 mph 6.0 mph 66% 0.00 in 0 W/m2
01:18 21.4 °F 11.5 °F 30.77 in NNW 3.0 mph 6.0 mph 65% 0.00 in 0 W/m2
01:24 21.4 °F 11.5 °F 30.77 in NNW 3.0 mph 3.0 mph 65% 0.00 in 0 W/m2
01:30 21.3 °F 11.4 °F 30.78 in NW 2.0 mph 4.0 mph 65% 0.00 in 0 W/m2
01:36 21.2 °F 11.3 °F 30.78 in NW 3.0 mph 4.0 mph 65% 0.00 in 0 W/m2
01:42 21.2 °F 11.3 °F 30.78 in NW 2.0 mph 2.0 mph 65% 0.00 in 0 W/m2
01:48 21.1 °F 11.5 °F 30.78 in North 1.0 mph 3.0 mph 66% 0.00 in 0 W/m2
01:54 21.0 °F 11.4 °F 30.78 in NNW 2.0 mph 3.0 mph 66% 0.00 in 0 W/m2
02:00 21.0 °F 11.4 °F 30.78 in NW 3.0 mph 3.0 mph 66% 0.00 in 0 W/m2
02:06 20.9 °F 11.3 °F 30.78 in NNW 2.0 mph 5.0 mph 66% 0.00 in 0 W/m2
02:12 20.9 °F 11.3 °F 30.78 in NNW 2.0 mph 2.0 mph 66% 0.00 in 0 W/m2
02:18 20.8 °F 11.2 °F 30.79 in NW 2.0 mph 3.0 mph 66% 0.00 in 0 W/m2
02:24 20.8 °F 11.2 °F 30.78 in NNW 2.0 mph 3.0 mph 66% 0.00 in 0 W/m2
02:30 20.8 °F 11.2 °F 30.78 in NNW 2.0 mph 2.0 mph 66% 0.00 in 0 W/m2
02:36 20.8 °F 11.2 °F 30.79 in North 1.0 mph 3.0 mph 66% 0.00 in 0 W/m2
02:42 20.7 °F 11.1 °F 30.78 in NNW 2.0 mph 4.0 mph 66% 0.00 in 0 W/m2
02:48 20.7 °F 11.1 °F 30.79 in North 2.0 mph 4.0 mph 66% 0.00 in 0 W/m2
02:54 20.6 °F 11.0 °F 30.79 in NNW 2.0 mph 2.0 mph 66% 0.00 in 0 W/m2
03:00 20.6 °F 11.0 °F 30.79 in NW 2.0 mph 3.0 mph 66% 0.00 in 0 W/m2
03:06 20.6 °F 11.0 °F 30.78 in NW 2.0 mph 3.0 mph 66% 0.00 in 0 W/m2
03:12 20.5 °F 10.9 °F 30.79 in NNW 1.0 mph 2.0 mph 66% 0.00 in 0 W/m2
03:18 20.5 °F 10.9 °F 30.79 in NW 2.0 mph 3.0 mph 66% 0.00 in 0 W/m2
03:24 20.6 °F 11.0 °F 30.79 in NW 2.0 mph 2.0 mph 66% 0.00 in 0 W/m2
03:30 20.4 °F 11.2 °F 30.79 in Calm   2.0 mph 67% 0.00 in 0 W/m2
03:36 20.4 °F 11.2 °F 30.79 in Calm   2.0 mph 67% 0.00 in 0 W/m2
03:46 20.4 °F 11.2 °F 30.79 in NW 1.0 mph 2.0 mph 67% 0.00 in 0 W/m2
03:52 20.4 °F 11.2 °F 30.78 in NW 1.0 mph 2.0 mph 67% 0.00 in 0 W/m2
03:58 20.3 °F 11.1 °F 30.78 in NW 1.0 mph 2.0 mph 67% 0.00 in 0 W/m2
04:04 20.3 °F 11.1 °F 30.79 in NW 1.0 mph 2.0 mph 67% 0.00 in 0 W/m2
04:10 20.3 °F 11.1 °F 30.80 in NW 1.0 mph 1.0 mph 67% 0.00 in 0 W/m2
04:16 20.3 °F 10.7 °F 30.79 in NNW 2.0 mph 2.0 mph 66% 0.00 in 0 W/m2
04:23 20.3 °F 10.7 °F 30.79 in NNW 2.0 mph 3.0 mph 66% 0.00 in 0 W/m2
04:28 20.2 °F 10.6 °F 30.79 in NNW 1.0 mph 4.0 mph 66% 0.00 in 0 W/m2
04:34 20.2 °F 10.6 °F 30.80 in NNW 2.0 mph 3.0 mph 66% 0.00 in 0 W/m2
04:40 20.2 °F 10.3 °F 30.80 in NNW 2.0 mph 3.0 mph 65% 0.00 in 0 W/m2
04:46 20.2 °F 10.0 °F 30.80 in NNW 2.0 mph 3.0 mph 64% 0.00 in 0 W/m2
04:52 20.1 °F 10.2 °F 30.80 in NNW 1.0 mph 1.0 mph 65% 0.00 in 0 W/m2
04:58 20.0 °F 9.8 °F 30.81 in NNW 1.0 mph 3.0 mph 64% 0.00 in 0 W/m2
05:04 20.0 °F 9.8 °F 30.80 in NNW 1.0 mph 3.0 mph 64% 0.00 in 0 W/m2
05:10 19.9 °F 10.0 °F 30.80 in NNW 1.0 mph 1.0 mph 65% 0.00 in 0 W/m2
05:16 19.8 °F 9.6 °F 30.80 in NNW 1.0 mph 1.0 mph 64% 0.00 in 0 W/m2
05:22 19.7 °F 9.8 °F 30.80 in NNW 1.0 mph 1.0 mph 65% 0.00 in 0 W/m2
05:28 19.6 °F 9.7 °F 30.81 in Calm   1.0 mph 65% 0.00 in 0 W/m2
05:34 19.4 °F 9.5 °F 30.81 in Calm   3.0 mph 65% 0.00 in 0 W/m2
05:40 19.3 °F 9.4 °F 30.81 in Calm     65% 0.00 in 0 W/m2
05:46 19.2 °F 9.4 °F 30.81 in NNW 1.0 mph 2.0 mph 65% 0.00 in 0 W/m2
05:52 19.0 °F 8.8 °F 30.81 in NNW 1.0 mph 1.0 mph 64% 0.00 in 0 W/m2
05:58 18.8 °F 9.0 °F 30.82 in Calm   1.0 mph 65% 0.00 in 0 W/m2
06:04 18.7 °F 8.9 °F 30.81 in Calm     65% 0.00 in 0 W/m2
06:10 18.6 °F 8.8 °F 30.81 in Calm     65% 0.00 in 0 W/m2
06:16 18.4 °F 8.9 °F 30.82 in Calm     66% 0.00 in 0 W/m2
06:22 18.2 °F 8.7 °F 30.82 in Calm     66% 0.00 in 0 W/m2
06:28 17.9 °F 8.8 °F 30.81 in Calm     67% 0.00 in 0 W/m2
06:34 17.7 °F 8.6 °F 30.81 in Calm     67% 0.00 in 0 W/m2
06:40 17.4 °F 8.6 °F 30.81 in Calm     68% 0.00 in 0 W/m2
06:46 17.0 °F 8.3 °F 30.80 in Calm     68% 0.00 in 0 W/m2
06:52 16.4 °F 8.0 °F 30.81 in Calm     69% 0.00 in 0 W/m2
06:58 15.7 °F 7.6 °F 30.81 in Calm   1.0 mph 70% 0.00 in 0 W/m2
07:04 15.2 °F 7.5 °F 30.81 in NNW 1.0 mph 3.0 mph 71% 0.00 in 5 W/m2
07:10 15.0 °F 7.3 °F 30.81 in NNW 1.0 mph 1.0 mph 71% 0.00 in 7 W/m2
07:16 14.6 °F 6.9 °F 30.82 in Calm   1.0 mph 71% 0.00 in 9 W/m2
07:22 14.3 °F 6.6 °F 30.82 in Calm     71% 0.00 in 12 W/m2
07:28 13.9 °F 6.5 °F 30.82 in Calm     72% 0.00 in 14 W/m2
07:34 13.5 °F 6.1 °F 30.82 in Calm     72% 0.00 in 16 W/m2
07:40 13.2 °F 6.2 °F 30.83 in Calm     73% 0.00 in 19 W/m2
07:46 12.9 °F 5.9 °F 30.83 in Calm     73% 0.00 in 25 W/m2
07:52 12.7 °F 6.0 °F 30.83 in Calm     74% 0.00 in 35 W/m2
07:58 12.7 °F 6.0 °F 30.83 in Calm     74% 0.00 in 35 W/m2
08:04 12.7 °F 6.3 °F 30.83 in Calm     75% 0.00 in 67 W/m2
08:10 13.0 °F 6.6 °F 30.83 in Calm   2.0 mph 75% 0.00 in 86 W/m2
08:16 13.7 °F 7.2 °F 30.83 in Calm   2.0 mph 75% 0.00 in 121 W/m2
08:22 14.6 °F 7.8 °F 30.83 in Calm   2.0 mph 74% 0.00 in 193 W/m2
08:28 15.9 °F 8.2 °F 30.84 in East 1.0 mph 3.0 mph 71% 0.00 in 213 W/m2
08:34 16.8 °F 7.7 °F 30.83 in ENE 1.0 mph 3.0 mph 67% 0.00 in 190 W/m2
08:40 17.0 °F 7.3 °F 30.84 in East 2.0 mph 5.0 mph 65% 0.00 in 272 W/m2
08:46 17.4 °F 7.3 °F 30.84 in East 2.0 mph 5.0 mph 64% 0.00 in 276 W/m2
08:52 17.8 °F 7.3 °F 30.84 in East 2.0 mph 2.0 mph 63% 0.00 in 295 W/m2
08:58 18.3 °F 7.4 °F 30.84 in East 1.0 mph 3.0 mph 62% 0.00 in 271 W/m2
09:04 18.2 °F 7.3 °F 30.84 in East 2.0 mph 3.0 mph 62% 0.00 in 236 W/m2
09:10 18.7 °F 7.8 °F 30.84 in SE 1.0 mph 3.0 mph 62% 0.00 in 290 W/m2
09:16 19.1 °F 7.5 °F 30.84 in SE 2.0 mph 3.0 mph 60% 0.00 in 315 W/m2
09:22 19.1 °F 7.8 °F 30.84 in SE 1.0 mph 2.0 mph 61% 0.00 in 285 W/m2
09:28 20.2 °F 8.1 °F 30.84 in Calm   4.0 mph 59% 0.00 in 246 W/m2
09:34 19.7 °F 8.0 °F 30.84 in SE 1.0 mph 3.0 mph 60% 0.00 in 213 W/m2
09:40 19.8 °F 8.1 °F 30.84 in SE 1.0 mph 1.0 mph 60% 0.00 in 420 W/m2
09:46 21.8 °F 9.3 °F 30.84 in SE 1.0 mph 1.0 mph 58% 0.00 in 432 W/m2
09:52 22.3 °F 9.4 °F 30.84 in Calm     57% 0.00 in 392 W/m2
09:58 23.2 °F 9.0 °F 30.83 in Calm   2.0 mph 54% 0.00 in 475 W/m2
10:04 22.0 °F 8.7 °F 30.83 in Calm     56% 0.00 in 408 W/m2
10:10 22.0 °F 8.7 °F 30.83 in SE 1.0 mph 4.0 mph 56% 0.00 in 496 W/m2
10:16 21.4 °F 8.5 °F 30.83 in SE 2.0 mph 4.0 mph 57% 0.00 in 429 W/m2
10:22 23.7 °F 9.9 °F 30.83 in SE 1.0 mph 1.0 mph 55% 0.00 in 517 W/m2
10:28 24.0 °F 9.7 °F 30.82 in Calm   5.0 mph 54% 0.00 in 526 W/m2
10:34 22.8 °F 9.0 °F 30.82 in NNE 2.0 mph 4.0 mph 55% 0.00 in 533 W/m2
10:40 23.3 °F 9.9 °F 30.82 in NE 1.0 mph 1.0 mph 56% 0.00 in 552 W/m2
10:46 24.4 °F 10.5 °F 30.81 in NE 1.0 mph 1.0 mph 55% 0.00 in 561 W/m2
10:52 26.0 °F 11.2 °F 30.81 in Calm   1.0 mph 53% 0.00 in 568 W/m2
10:58 26.1 °F 10.4 °F 30.81 in Calm   1.0 mph 51% 0.00 in 589 W/m2
11:04 25.0 °F 9.8 °F 30.81 in Calm   2.0 mph 52% 0.00 in 596 W/m2
11:10 25.7 °F 10.0 °F 30.81 in NW 1.0 mph 1.0 mph 51% 0.00 in 610 W/m2
11:16 25.7 °F 9.6 °F 30.80 in NW 1.0 mph 1.0 mph 50% 0.00 in 596 W/m2
11:22 24.6 °F 9.0 °F 30.80 in Calm   2.0 mph 51% 0.00 in 496 W/m2
11:28 25.1 °F 9.5 °F 30.80 in Calm   3.0 mph 51% 0.00 in 529 W/m2
11:34 25.4 °F 10.2 °F 30.79 in NW 1.0 mph 2.0 mph 52% 0.00 in 548 W/m2
11:40 24.6 °F 9.5 °F 30.79 in NW 1.0 mph 3.0 mph 52% 0.00 in 547 W/m2
11:46 24.1 °F 9.4 °F 30.78 in SW 2.0 mph 4.0 mph 53% 0.00 in 561 W/m2
11:52 25.5 °F 9.4 °F 30.78 in SW 2.0 mph 2.0 mph 50% 0.00 in 526 W/m2
11:58 25.0 °F 9.4 °F 30.78 in ESE 1.0 mph 3.0 mph 51% 0.00 in 504 W/m2
12:04 24.7 °F 9.5 °F 30.77 in SE 2.0 mph 2.0 mph 52% 0.00 in 480 W/m2
12:10 24.5 °F 9.8 °F 30.77 in South 2.0 mph 4.0 mph 53% 0.00 in 424 W/m2
12:16 24.3 °F 9.2 °F 30.77 in South 3.0 mph 4.0 mph 52% 0.00 in 394 W/m2
12:22 25.2 °F 9.6 °F 30.76 in South 1.0 mph 2.0 mph 51% 0.00 in 536 W/m2
12:28 25.2 °F 9.1 °F 30.75 in SSW 2.0 mph 3.0 mph 50% 0.00 in 547 W/m2
12:34 24.7 °F 9.1 °F 30.75 in SSE 3.0 mph 3.0 mph 51% 0.00 in 533 W/m2
12:40 25.9 °F 9.3 °F 30.75 in SSE 1.0 mph 1.0 mph 49% 0.00 in 490 W/m2
12:46 26.5 °F 9.9 °F 30.74 in SSW 1.0 mph 3.0 mph 49% 0.00 in 403 W/m2
12:52 25.1 °F 9.0 °F 30.74 in East 2.0 mph 3.0 mph 50% 0.00 in 369 W/m2
12:58 25.5 °F 9.9 °F 30.74 in ESE 1.0 mph 3.0 mph 51% 0.00 in 527 W/m2
13:04 25.6 °F 9.5 °F 30.73 in SSE 2.0 mph 7.0 mph 50% 0.00 in 411 W/m2
13:10 25.7 °F 9.6 °F 30.73 in SW 3.0 mph 3.0 mph 50% 0.00 in 350 W/m2
13:16 25.7 °F 9.2 °F 30.72 in SW 1.0 mph 3.0 mph 49% 0.00 in 445 W/m2
13:22 26.1 °F 10.4 °F 30.72 in SW 1.0 mph 1.0 mph 51% 0.00 in 427 W/m2
13:28 25.6 °F 9.5 °F 30.72 in South 1.0 mph 4.0 mph 50% 0.00 in 385 W/m2
13:34 25.6 °F 10.0 °F 30.72 in SE 2.0 mph 4.0 mph 51% 0.00 in 392 W/m2
13:40 25.7 °F 10.5 °F 30.71 in SE 2.0 mph 4.0 mph 52% 0.00 in 366 W/m2
13:46 25.8 °F 10.1 °F 30.70 in SE 2.0 mph 4.0 mph 51% 0.00 in 330 W/m2
13:52 27.3 °F 11.1 °F 30.70 in SE 1.0 mph 1.0 mph 50% 0.00 in 327 W/m2
13:58 26.6 °F 10.9 °F 30.70 in ESE 1.0 mph 2.0 mph 51% 0.00 in 394 W/m2
14:04 26.3 °F 11.0 °F 30.69 in East 2.0 mph 4.0 mph 52% 0.00 in 411 W/m2
14:10 25.9 °F 10.7 °F 30.69 in NE 4.0 mph 4.0 mph 52% 0.00 in 404 W/m2
14:16 26.2 °F 11.4 °F 30.68 in NE 3.0 mph 5.0 mph 53% 0.00 in 411 W/m2
14:22 26.1 °F 11.3 °F 30.67 in ENE 3.0 mph 4.0 mph 53% 0.00 in 429 W/m2
14:28 26.1 °F 11.7 °F 30.67 in NNE 3.0 mph 4.0 mph 54% 0.00 in 330 W/m2
14:34 25.7 °F 10.5 °F 30.67 in East 3.0 mph 7.0 mph 52% 0.00 in 359 W/m2
14:40 25.5 °F 10.7 °F 30.66 in North 3.0 mph 3.0 mph 53% 0.00 in 309 W/m2
14:46 25.5 °F 10.7 °F 30.66 in East 3.0 mph 5.0 mph 53% 0.00 in 227 W/m2
14:52 25.5 °F 10.7 °F 30.66 in East 3.0 mph 5.0 mph 53% 0.00 in 299 W/m2
14:58 25.4 °F 10.6 °F 30.66 in ENE 3.0 mph 5.0 mph 53% 0.00 in 373 W/m2
15:04 25.8 °F 10.6 °F 30.65 in ENE 3.0 mph 4.0 mph 52% 0.00 in 325 W/m2
15:10 25.7 °F 11.3 °F 30.65 in NE 3.0 mph 3.0 mph 54% 0.00 in 320 W/m2
15:16 25.9 °F 10.7 °F 30.65 in NE 3.0 mph 4.0 mph 52% 0.00 in 285 W/m2
15:22 25.8 °F 10.6 °F 30.65 in NNE 4.0 mph 6.0 mph 52% 0.00 in 285 W/m2
15:28 26.0 °F 10.3 °F 30.64 in ENE 3.0 mph 8.0 mph 51% 0.00 in 265 W/m2
15:34 25.6 °F 10.0 °F 30.64 in NW 3.0 mph 3.0 mph 51% 0.00 in 257 W/m2
15:40 25.5 °F 10.3 °F 30.64 in NNE 3.0 mph 3.0 mph 52% 0.00 in 230 W/m2
15:46 25.7 °F 10.5 °F 30.64 in NNW 3.0 mph 3.0 mph 52% 0.00 in 209 W/m2
15:52 25.6 °F 10.0 °F 30.63 in ENE 2.0 mph 2.0 mph 51% 0.00 in 172 W/m2
15:58 25.6 °F 10.0 °F 30.63 in NNE 3.0 mph 5.0 mph 51% 0.00 in 183 W/m2
16:04 25.9 °F 10.7 °F 30.63 in NE 3.0 mph 5.0 mph 52% 0.00 in 192 W/m2
16:10 25.6 °F 9.1 °F 30.62 in ENE 3.0 mph 3.0 mph 49% 0.00 in 218 W/m2
16:16 25.7 °F 9.6 °F 30.62 in ENE 3.0 mph 3.0 mph 50% 0.00 in 111 W/m2
16:22 25.9 °F 9.8 °F 30.61 in ENE 2.0 mph 2.0 mph 50% 0.00 in 91 W/m2
16:28 25.9 °F 8.9 °F 30.61 in ESE 3.0 mph 6.0 mph 48% 0.00 in 81 W/m2
16:34 25.8 °F 9.2 °F 30.61 in ENE 4.0 mph 5.0 mph 49% 0.00 in 72 W/m2
16:40 25.9 °F 9.8 °F 30.60 in East 3.0 mph 3.0 mph 50% 0.00 in 65 W/m2
16:46 25.8 °F 9.7 °F 30.59 in East 3.0 mph 6.0 mph 50% 0.00 in 56 W/m2
16:52 25.7 °F 9.6 °F 30.59 in East 3.0 mph 4.0 mph 50% 0.00 in 49 W/m2
16:58 25.7 °F 10.0 °F 30.58 in ENE 2.0 mph 4.0 mph 51% 0.00 in 42 W/m2
17:04 25.7 °F 10.0 °F 30.58 in ENE 2.0 mph 5.0 mph 51% 0.00 in 35 W/m2
17:10 25.7 °F 10.0 °F 30.58 in SE 2.0 mph 2.0 mph 51% 0.00 in 25 W/m2
17:16 25.5 °F 9.9 °F 30.58 in ENE 2.0 mph 3.0 mph 51% 0.00 in 16 W/m2
17:22 25.4 °F 9.8 °F 30.58 in ENE 2.0 mph 2.0 mph 51% 0.00 in 7 W/m2
17:28 25.3 °F 9.2 °F 30.57 in ENE 2.0 mph 3.0 mph 50% 0.00 in 0 W/m2
17:34 25.3 °F 9.7 °F 30.58 in ENE 2.0 mph 3.0 mph 51% 0.00 in 0 W/m2
17:40 25.2 °F 9.6 °F 30.58 in ENE 1.0 mph 1.0 mph 51% 0.00 in 0 W/m2
17:46 25.0 °F 9.4 °F 30.57 in ENE 1.0 mph 1.0 mph 51% 0.00 in 0 W/m2
17:52 24.6 °F 9.5 °F 30.57 in ENE 1.0 mph 1.0 mph 52% 0.00 in 0 W/m2
17:58 24.2 °F 9.5 °F 30.57 in Calm   1.0 mph 53% 0.00 in 0 W/m2
18:04 24.1 °F 9.4 °F 30.56 in ENE 1.0 mph 1.0 mph 53% 0.00 in 0 W/m2
18:10 24.2 °F 9.9 °F 30.55 in ENE 1.0 mph 5.0 mph 54% 0.00 in 0 W/m2
18:16 24.3 °F 10.0 °F 30.55 in ENE 1.0 mph 5.0 mph 54% 0.00 in 0 W/m2
18:22 24.8 °F 10.1 °F 30.55 in ENE 2.0 mph 2.0 mph 53% 0.00 in 0 W/m2
18:28 24.9 °F 10.2 °F 30.54 in East 3.0 mph 3.0 mph 53% 0.00 in 0 W/m2
18:34 24.9 °F 10.6 °F 30.54 in ENE 2.0 mph 2.0 mph 54% 0.00 in 0 W/m2
18:40 24.9 °F 10.2 °F 30.53 in ENE 2.0 mph 4.0 mph 53% 0.00 in 0 W/m2
18:46 25.1 °F 10.3 °F 30.54 in East 3.0 mph 5.0 mph 53% 0.00 in 0 W/m2
18:52 25.0 °F 10.7 °F 30.54 in ENE 2.0 mph 3.0 mph 54% 0.00 in 0 W/m2
18:58 24.8 °F 10.5 °F 30.53 in ESE 1.0 mph 3.0 mph 54% 0.00 in 0 W/m2
19:04 24.8 °F 10.9 °F 30.53 in ENE 2.0 mph 2.0 mph 55% 0.00 in 0 W/m2
19:10 24.7 °F 10.8 °F 30.52 in East 1.0 mph 1.0 mph 55% 0.00 in 0 W/m2
19:16 24.6 °F 11.1 °F 30.52 in ENE 1.0 mph 2.0 mph 56% 0.00 in 0 W/m2
19:22 24.6 °F 11.1 °F 30.52 in ENE 1.0 mph 2.0 mph 56% 0.00 in 0 W/m2
19:28 24.7 °F 11.2 °F 30.52 in SE 2.0 mph 2.0 mph 56% 0.00 in 0 W/m2
19:34 24.8 °F 11.7 °F 30.51 in East 1.0 mph 3.0 mph 57% 0.00 in 0 W/m2
19:40 24.7 °F 11.2 °F 30.50 in SE 1.0 mph 2.0 mph 56% 0.00 in 0 W/m2
19:46 24.7 °F 11.6 °F 30.50 in ESE 1.0 mph 3.0 mph 57% 0.00 in 0 W/m2
19:52 24.5 °F 11.4 °F 30.50 in East 1.0 mph 1.0 mph 57% 0.00 in 0 W/m2
19:58 24.5 °F 11.4 °F 30.50 in East 1.0 mph 3.0 mph 57% 0.00 in 0 W/m2
20:04 24.2 °F 11.1 °F 30.49 in Calm   1.0 mph 57% 0.00 in 0 W/m2
20:10 24.0 °F 11.3 °F 30.49 in Calm     58% 0.00 in 0 W/m2
20:16 24.0 °F 11.3 °F 30.49 in Calm   2.0 mph 58% 0.00 in 0 W/m2
20:22 24.0 °F 11.7 °F 30.49 in Calm   2.0 mph 59% 0.00 in 0 W/m2
20:28 23.9 °F 12.0 °F 30.49 in Calm   2.0 mph 60% 0.00 in 0 W/m2
20:34 23.7 °F 11.8 °F 30.48 in East 1.0 mph 1.0 mph 60% 0.00 in 0 W/m2
20:40 23.6 °F 11.7 °F 30.47 in ENE 1.0 mph 1.0 mph 60% 0.00 in 0 W/m2
20:46 23.5 °F 12.0 °F 30.47 in East 1.0 mph 2.0 mph 61% 0.00 in 0 W/m2
20:52 23.3 °F 11.8 °F 30.47 in NE 1.0 mph 2.0 mph 61% 0.00 in 0 W/m2
20:58 23.4 °F 11.9 °F 30.47 in ENE 1.0 mph 2.0 mph 61% 0.00 in 0 W/m2
21:04 23.3 °F 11.8 °F 30.46 in East 1.0 mph 3.0 mph 61% 0.00 in 0 W/m2
21:10 23.5 °F 12.0 °F 30.46 in SE 1.0 mph 1.0 mph 61% 0.00 in 0 W/m2
21:16 23.1 °F 12.0 °F 30.46 in East 1.0 mph 3.0 mph 62% 0.00 in 0 W/m2
21:22 22.6 °F 11.9 °F 30.45 in East 1.0 mph 1.0 mph 63% 0.00 in 0 W/m2
21:28 22.2 °F 11.9 °F 30.44 in Calm   1.0 mph 64% 0.00 in 0 W/m2
21:34 22.2 °F 12.2 °F 30.44 in Calm   2.0 mph 65% 0.00 in 0 W/m2
21:40 22.4 °F 12.4 °F 30.43 in East 1.0 mph 1.0 mph 65% 0.00 in 0 W/m2
21:46 22.8 °F 12.4 °F 30.43 in ENE 2.0 mph 7.0 mph 64% 0.00 in 0 W/m2
21:52 23.0 °F 12.6 °F 30.43 in ENE 1.0 mph 1.0 mph 64% 0.00 in 0 W/m2
21:58 22.9 °F 12.9 °F 30.42 in ENE 1.0 mph 1.0 mph 65% 0.00 in 0 W/m2
22:04 23.0 °F 13.0 °F 30.43 in ENE 1.0 mph 1.0 mph 65% 0.00 in 0 W/m2
22:10 23.1 °F 13.1 °F 30.42 in East 1.0 mph 2.0 mph 65% 0.00 in 0 W/m2
22:16 23.2 °F 13.2 °F 30.42 in ENE 2.0 mph 2.0 mph 65% 0.00 in 0 W/m2
22:22 23.2 °F 13.2 °F 30.42 in ENE 2.0 mph 3.0 mph 65% 0.00 in 0 W/m2
22:28 23.3 °F 13.3 °F 30.42 in ENE 1.0 mph 3.0 mph 65% 0.00 in 0 W/m2
22:34 23.5 °F 13.1 °F 30.42 in ENE 1.0 mph 2.0 mph 64% 0.00 in 0 W/m2
22:40 23.5 °F 13.5 °F 30.41 in ENE 1.0 mph 1.0 mph 65% 0.00 in 0 W/m2
22:46 23.5 °F 13.1 °F 30.41 in Calm   2.0 mph 64% 0.00 in 0 W/m2
22:52 23.4 °F 13.4 °F 30.41 in ENE 1.0 mph 1.0 mph 65% 0.00 in 0 W/m2
22:58 23.2 °F 13.5 °F 30.41 in Calm   1.0 mph 66% 0.00 in 0 W/m2
23:04 23.3 °F 13.6 °F 30.41 in ENE 1.0 mph 2.0 mph 66% 0.00 in 0 W/m2
23:10 23.1 °F 13.8 °F 30.40 in ENE 1.0 mph 1.0 mph 67% 0.00 in 0 W/m2
23:16 22.9 °F 13.9 °F 30.40 in ENE 1.0 mph 1.0 mph 68% 0.00 in 0 W/m2
23:22 22.9 °F 14.2 °F 30.39 in Calm   1.0 mph 69% 0.00 in 0 W/m2
23:28 23.0 °F 14.3 °F 30.38 in Calm   1.0 mph 69% 0.00 in 0 W/m2
23:34 22.9 °F 14.2 °F 30.38 in Calm     69% 0.00 in 0 W/m2
23:40 22.7 °F 14.1 °F 30.38 in ENE 1.0 mph 1.0 mph 69% 0.00 in 0 W/m2
23:46 22.5 °F 13.9 °F 30.36 in ENE 1.0 mph 1.0 mph 69% 0.00 in 0 W/m2
23:52 22.2 °F 13.2 °F 30.36 in Calm   1.0 mph 68% 0.00 in 0 W/m2
23:58 22.2 °F 13.6 °F 30.36 in NE 1.0 mph 3.0 mph 69% 0.00 in 0 W/m2
Country Meadow, Clay, NY, USA
Compliments of Weather Underground - 2 mb